sensor_id;sensor_type;location;lat;lon;timestamp;pressure;altitude;pressure_sealevel;temperature;humidity
74524;BME280;63074;44.696;10.358;2023-06-24T00:01:17;100169.69;;;31.98;54.86
74524;BME280;63074;44.696;10.358;2023-06-24T00:03:43;100192.56;;;31.12;57.08
74524;BME280;63074;44.696;10.358;2023-06-24T00:06:12;100168.59;;;32.06;55.04
74524;BME280;63074;44.696;10.358;2023-06-24T00:08:48;100167.78;;;32.02;55.05
74524;BME280;63074;44.696;10.358;2023-06-24T00:11:15;100165.28;;;31.93;54.95
74524;BME280;63074;44.696;10.358;2023-06-24T00:13:42;100160.56;;;31.97;54.50
74524;BME280;63074;44.696;10.358;2023-06-24T00:16:09;100193.72;;;31.34;56.54
74524;BME280;63074;44.696;10.358;2023-06-24T00:18:37;100191.69;;;31.57;56.23
74524;BME280;63074;44.696;10.358;2023-06-24T00:21:06;100191.09;;;31.67;55.77
74524;BME280;63074;44.696;10.358;2023-06-24T00:23:33;100176.53;;;32.04;54.76
74524;BME280;63074;44.696;10.358;2023-06-24T00:26:02;100204.91;;;30.95;56.74
74524;BME280;63074;44.696;10.358;2023-06-24T00:28:28;100191.13;;;31.44;56.13
74524;BME280;63074;44.696;10.358;2023-06-24T00:30:54;100213.31;;;31.21;57.23
74524;BME280;63074;44.696;10.358;2023-06-24T00:33:21;100198.16;;;31.65;56.16
74524;BME280;63074;44.696;10.358;2023-06-24T00:35:47;100221.09;;;30.93;58.38
74524;BME280;63074;44.696;10.358;2023-06-24T00:38:14;100229.13;;;30.56;59.20
74524;BME280;63074;44.696;10.358;2023-06-24T00:40:40;100233.97;;;30.24;59.96
74524;BME280;63074;44.696;10.358;2023-06-24T00:43:06;100233.91;;;30.20;60.14
74524;BME280;63074;44.696;10.358;2023-06-24T00:45:33;100211.94;;;30.12;58.23
74524;BME280;63074;44.696;10.358;2023-06-24T00:47:59;100197.19;;;30.08;57.10
74524;BME280;63074;44.696;10.358;2023-06-24T00:52:53;100175.38;;;29.71;55.61
74524;BME280;63074;44.696;10.358;2023-06-24T00:55:19;100161.69;;;29.78;55.08
74524;BME280;63074;44.696;10.358;2023-06-24T00:57:51;100145.25;;;30.43;53.64
74524;BME280;63074;44.696;10.358;2023-06-24T01:00:21;100158.78;;;29.55;54.32
74524;BME280;63074;44.696;10.358;2023-06-24T01:02:49;100188.75;;;28.90;56.38
74524;BME280;63074;44.696;10.358;2023-06-24T01:05:15;100185.50;;;28.73;56.12
74524;BME280;63074;44.696;10.358;2023-06-24T01:07:42;100192.41;;;28.51;56.34
74524;BME280;63074;44.696;10.358;2023-06-24T01:10:10;100172.19;;;29.06;54.90
74524;BME280;63074;44.696;10.358;2023-06-24T01:12:39;100176.97;;;28.78;55.11
74524;BME280;63074;44.696;10.358;2023-06-24T01:15:10;100178.72;;;28.70;55.03
74524;BME280;63074;44.696;10.358;2023-06-24T01:17:44;100195.16;;;28.11;56.20
74524;BME280;63074;44.696;10.358;2023-06-24T01:25:51;100188.81;;;28.10;55.04
74524;BME280;63074;44.696;10.358;2023-06-24T01:34:15;100187.22;;;28.21;55.33
74524;BME280;63074;44.696;10.358;2023-06-24T01:37:08;100188.44;;;27.84;56.13
74524;BME280;63074;44.696;10.358;2023-06-24T01:39:42;100178.78;;;28.30;55.44
74524;BME280;63074;44.696;10.358;2023-06-24T01:42:11;100180.03;;;27.93;56.33
74524;BME280;63074;44.696;10.358;2023-06-24T01:44:43;100190.09;;;28.25;55.89
74524;BME280;63074;44.696;10.358;2023-06-24T01:47:10;100189.69;;;28.39;55.52
74524;BME280;63074;44.696;10.358;2023-06-24T01:49:40;100195.63;;;28.13;56.11
74524;BME280;63074;44.696;10.358;2023-06-24T01:52:09;100203.56;;;28.27;56.04
74524;BME280;63074;44.696;10.358;2023-06-24T01:54:41;100222.47;;;27.39;57.95
74524;BME280;63074;44.696;10.358;2023-06-24T01:57:09;100217.50;;;27.45;57.99
74524;BME280;63074;44.696;10.358;2023-06-24T01:59:37;100208.34;;;27.65;57.97
74524;BME280;63074;44.696;10.358;2023-06-24T02:02:07;100215.25;;;27.71;58.13
74524;BME280;63074;44.696;10.358;2023-06-24T02:04:34;100228.84;;;27.19;59.09
74524;BME280;63074;44.696;10.358;2023-06-24T02:07:03;100230.19;;;27.58;59.51
74524;BME280;63074;44.696;10.358;2023-06-24T02:09:30;100216.59;;;27.41;58.78
74524;BME280;63074;44.696;10.358;2023-06-24T02:11:58;100200.38;;;28.00;58.12
74524;BME280;63074;44.696;10.358;2023-06-24T02:16:53;100232.03;;;27.42;59.49
74524;BME280;63074;44.696;10.358;2023-06-24T02:21:52;100221.56;;;27.84;58.51
74524;BME280;63074;44.696;10.358;2023-06-24T02:24:19;100225.94;;;27.85;58.40
74524;BME280;63074;44.696;10.358;2023-06-24T02:26:47;100223.47;;;27.22;59.02
74524;BME280;63074;44.696;10.358;2023-06-24T02:29:14;100224.13;;;27.65;59.12
74524;BME280;63074;44.696;10.358;2023-06-24T02:31:41;100236.53;;;27.59;59.67
74524;BME280;63074;44.696;10.358;2023-06-24T02:34:07;100255.41;;;26.90;61.36
74524;BME280;63074;44.696;10.358;2023-06-24T02:36:33;100248.03;;;27.03;61.22
74524;BME280;63074;44.696;10.358;2023-06-24T02:39:00;100225.09;;;27.36;59.89
74524;BME280;63074;44.696;10.358;2023-06-24T02:43:52;100215.63;;;27.00;60.67
74524;BME280;63074;44.696;10.358;2023-06-24T02:46:19;100244.34;;;26.99;61.42
74524;BME280;63074;44.696;10.358;2023-06-24T02:48:47;100237.22;;;27.80;59.82
74524;BME280;63074;44.696;10.358;2023-06-24T02:51:14;100208.06;;;28.07;58.78
74524;BME280;63074;44.696;10.358;2023-06-24T02:53:41;100262.41;;;26.88;62.48
74524;BME280;63074;44.696;10.358;2023-06-24T02:56:08;100228.69;;;27.97;59.04
74524;BME280;63074;44.696;10.358;2023-06-24T02:58:37;100232.00;;;27.30;60.92
74524;BME280;63074;44.696;10.358;2023-06-24T03:01:05;100259.66;;;26.88;62.91
74524;BME280;63074;44.696;10.358;2023-06-24T03:03:35;100283.78;;;25.78;66.94
74524;BME280;63074;44.696;10.358;2023-06-24T03:06:02;100240.13;;;27.14;63.04
74524;BME280;63074;44.696;10.358;2023-06-24T03:08:29;100193.84;;;28.33;59.63
74524;BME280;63074;44.696;10.358;2023-06-24T03:10:57;100242.88;;;26.81;62.57
74524;BME280;63074;44.696;10.358;2023-06-24T03:13:24;100274.59;;;26.24;65.46
74524;BME280;63074;44.696;10.358;2023-06-24T03:15:50;100281.25;;;26.23;66.47
74524;BME280;63074;44.696;10.358;2023-06-24T03:18:17;100209.97;;;27.66;61.45
74524;BME280;63074;44.696;10.358;2023-06-24T03:20:44;100196.00;;;27.99;59.85
74524;BME280;63074;44.696;10.358;2023-06-24T03:23:10;100206.88;;;27.68;60.15
74524;BME280;63074;44.696;10.358;2023-06-24T03:25:36;100230.50;;;27.44;60.88
74524;BME280;63074;44.696;10.358;2023-06-24T03:28:03;100236.31;;;27.06;61.65
74524;BME280;63074;44.696;10.358;2023-06-24T03:30:30;100265.81;;;26.73;63.71
74524;BME280;63074;44.696;10.358;2023-06-24T03:32:57;100262.16;;;26.18;64.95
74524;BME280;63074;44.696;10.358;2023-06-24T03:35:23;100244.34;;;26.99;62.94
74524;BME280;63074;44.696;10.358;2023-06-24T03:37:49;100233.22;;;27.08;61.73
74524;BME280;63074;44.696;10.358;2023-06-24T03:40:15;100228.34;;;27.38;61.05
74524;BME280;63074;44.696;10.358;2023-06-24T03:42:42;100304.97;;;25.78;67.67
74524;BME280;63074;44.696;10.358;2023-06-24T03:45:08;100257.47;;;26.61;64.29
74524;BME280;63074;44.696;10.358;2023-06-24T03:47:34;100234.53;;;27.35;62.33
74524;BME280;63074;44.696;10.358;2023-06-24T03:50:01;100225.38;;;26.98;61.70
74524;BME280;63074;44.696;10.358;2023-06-24T03:54:53;100214.59;;;28.14;59.21
74524;BME280;63074;44.696;10.358;2023-06-24T03:57:19;100207.78;;;28.36;58.59
74524;BME280;63074;44.696;10.358;2023-06-24T03:59:46;100220.94;;;28.15;58.82
74524;BME280;63074;44.696;10.358;2023-06-24T04:02:13;100222.00;;;27.98;58.62
74524;BME280;63074;44.696;10.358;2023-06-24T04:04:40;100278.50;;;26.86;61.79
74524;BME280;63074;44.696;10.358;2023-06-24T04:07:06;100269.31;;;26.82;61.89
74524;BME280;63074;44.696;10.358;2023-06-24T04:09:33;100258.88;;;27.20;61.03
74524;BME280;63074;44.696;10.358;2023-06-24T04:12:00;100304.94;;;26.45;63.43
74524;BME280;63074;44.696;10.358;2023-06-24T04:16:53;100289.88;;;26.84;62.37
74524;BME280;63074;44.696;10.358;2023-06-24T04:19:19;100257.69;;;27.67;60.29
74524;BME280;63074;44.696;10.358;2023-06-24T04:21:45;100246.31;;;27.93;59.04
74524;BME280;63074;44.696;10.358;2023-06-24T04:24:11;100233.53;;;28.52;57.58
74524;BME280;63074;44.696;10.358;2023-06-24T04:26:38;100260.69;;;27.86;59.22
74524;BME280;63074;44.696;10.358;2023-06-24T04:29:04;100275.38;;;27.53;60.44
74524;BME280;63074;44.696;10.358;2023-06-24T04:31:30;100275.53;;;27.69;59.92
74524;BME280;63074;44.696;10.358;2023-06-24T04:33:56;100283.72;;;27.45;60.79
74524;BME280;63074;44.696;10.358;2023-06-24T04:36:22;100286.75;;;27.40;61.14
74524;BME280;63074;44.696;10.358;2023-06-24T04:38:49;100305.22;;;26.73;62.58
74524;BME280;63074;44.696;10.358;2023-06-24T04:41:15;100315.34;;;26.61;63.78
74524;BME280;63074;44.696;10.358;2023-06-24T04:43:41;100308.97;;;26.69;64.18
74524;BME280;63074;44.696;10.358;2023-06-24T04:46:07;100310.31;;;26.42;65.05
74524;BME280;63074;44.696;10.358;2023-06-24T04:48:34;100314.78;;;26.55;65.52
74524;BME280;63074;44.696;10.358;2023-06-24T04:51:00;100296.25;;;26.97;64.12
74524;BME280;63074;44.696;10.358;2023-06-24T04:55:52;100304.66;;;26.38;65.96
74524;BME280;63074;44.696;10.358;2023-06-24T04:58:19;100294.69;;;26.54;66.15
74524;BME280;63074;44.696;10.358;2023-06-24T05:00:45;100267.59;;;27.22;65.03
74524;BME280;63074;44.696;10.358;2023-06-24T05:03:11;100303.66;;;26.43;67.11
74524;BME280;63074;44.696;10.358;2023-06-24T05:05:37;100252.13;;;27.54;63.97
74524;BME280;63074;44.696;10.358;2023-06-24T05:08:04;100263.78;;;27.72;63.90
74524;BME280;63074;44.696;10.358;2023-06-24T05:10:30;100280.25;;;27.11;65.26
74524;BME280;63074;44.696;10.358;2023-06-24T05:12:56;100286.09;;;27.10;66.10
74524;BME280;63074;44.696;10.358;2023-06-24T05:15:22;100256.31;;;27.85;64.22
74524;BME280;63074;44.696;10.358;2023-06-24T05:17:48;100261.94;;;27.64;64.19
74524;BME280;63074;44.696;10.358;2023-06-24T05:20:15;100275.69;;;27.52;64.79
74524;BME280;63074;44.696;10.358;2023-06-24T05:22:41;100278.75;;;27.59;63.79
74524;BME280;63074;44.696;10.358;2023-06-24T05:25:07;100278.56;;;27.43;64.67
74524;BME280;63074;44.696;10.358;2023-06-24T05:27:34;100254.31;;;28.10;62.66
74524;BME280;63074;44.696;10.358;2023-06-24T05:30:00;100275.53;;;27.69;63.58
74524;BME280;63074;44.696;10.358;2023-06-24T05:34:52;100272.06;;;27.97;63.26
74524;BME280;63074;44.696;10.358;2023-06-24T05:37:18;100259.72;;;28.31;62.71
74524;BME280;63074;44.696;10.358;2023-06-24T05:39:44;100244.13;;;28.78;60.01
74524;BME280;63074;44.696;10.358;2023-06-24T05:42:10;100243.50;;;29.13;59.55
74524;BME280;63074;44.696;10.358;2023-06-24T05:44:37;100263.09;;;28.92;60.92
74524;BME280;63074;44.696;10.358;2023-06-24T05:47:03;100272.97;;;28.65;60.88
74524;BME280;63074;44.696;10.358;2023-06-24T05:49:29;100264.88;;;28.72;61.05
74524;BME280;63074;44.696;10.358;2023-06-24T05:51:56;100245.44;;;29.56;59.66
74524;BME280;63074;44.696;10.358;2023-06-24T05:54:23;100273.25;;;29.16;59.81
74524;BME280;63074;44.696;10.358;2023-06-24T05:56:49;100275.56;;;29.14;59.94
74524;BME280;63074;44.696;10.358;2023-06-24T05:59:16;100257.13;;;29.49;58.91
74524;BME280;63074;44.696;10.358;2023-06-24T06:01:42;100261.22;;;29.40;57.63
74524;BME280;63074;44.696;10.358;2023-06-24T06:04:08;100281.44;;;29.40;58.65
74524;BME280;63074;44.696;10.358;2023-06-24T06:06:34;100266.06;;;29.59;58.17
74524;BME280;63074;44.696;10.358;2023-06-24T06:09:00;100273.75;;;29.65;58.40
74524;BME280;63074;44.696;10.358;2023-06-24T06:13:56;100284.69;;;30.09;57.67
74524;BME280;63074;44.696;10.358;2023-06-24T06:16:23;100298.09;;;29.75;58.22
74524;BME280;63074;44.696;10.358;2023-06-24T06:18:49;100314.22;;;29.26;58.93
74524;BME280;63074;44.696;10.358;2023-06-24T06:21:16;100321.28;;;28.96;59.76
74524;BME280;63074;44.696;10.358;2023-06-24T06:23:42;100300.31;;;30.52;57.42
74524;BME280;63074;44.696;10.358;2023-06-24T06:26:08;100305.44;;;30.34;57.62
74524;BME280;63074;44.696;10.358;2023-06-24T06:28:34;100319.19;;;30.27;58.40
74524;BME280;63074;44.696;10.358;2023-06-24T06:31:01;100296.03;;;30.74;56.75
74524;BME280;63074;44.696;10.358;2023-06-24T06:35:53;100314.56;;;30.70;56.88
74524;BME280;63074;44.696;10.358;2023-06-24T06:38:19;100336.88;;;30.07;58.02
74524;BME280;63074;44.696;10.358;2023-06-24T06:40:46;100326.97;;;29.90;58.18
74524;BME280;63074;44.696;10.358;2023-06-24T06:43:12;100304.31;;;30.89;56.87
74524;BME280;63074;44.696;10.358;2023-06-24T06:45:38;100287.81;;;31.39;55.06
74524;BME280;63074;44.696;10.358;2023-06-24T06:48:05;100314.81;;;30.45;56.19
74524;BME280;63074;44.696;10.358;2023-06-24T06:50:34;100299.03;;;31.46;53.99
74524;BME280;63074;44.696;10.358;2023-06-24T06:53:01;100305.97;;;31.13;54.76
74524;BME280;63074;44.696;10.358;2023-06-24T06:57:53;100279.41;;;31.81;52.84
74524;BME280;63074;44.696;10.358;2023-06-24T07:00:20;100299.53;;;30.71;54.29
74524;BME280;63074;44.696;10.358;2023-06-24T07:02:50;100306.69;;;31.10;53.54
74524;BME280;63074;44.696;10.358;2023-06-24T07:05:16;100295.88;;;31.47;52.23
74524;BME280;63074;44.696;10.358;2023-06-24T07:07:44;100282.19;;;32.07;51.90
74524;BME280;63074;44.696;10.358;2023-06-24T07:10:11;100291.16;;;31.71;51.78
74524;BME280;63074;44.696;10.358;2023-06-24T07:12:38;100276.06;;;32.21;51.36
74524;BME280;63074;44.696;10.358;2023-06-24T07:15:05;100307.09;;;31.54;52.22
74524;BME280;63074;44.696;10.358;2023-06-24T07:17:31;100297.00;;;31.66;51.43
74524;BME280;63074;44.696;10.358;2023-06-24T07:19:57;100279.69;;;31.99;50.39
74524;BME280;63074;44.696;10.358;2023-06-24T07:22:23;100306.31;;;31.31;52.00
74524;BME280;63074;44.696;10.358;2023-06-24T07:24:49;100331.38;;;30.58;52.72
74524;BME280;63074;44.696;10.358;2023-06-24T07:27:16;100285.44;;;32.13;50.25
74524;BME280;63074;44.696;10.358;2023-06-24T07:29:42;100303.00;;;31.68;51.22
74524;BME280;63074;44.696;10.358;2023-06-24T07:32:08;100332.78;;;30.86;53.41
74524;BME280;63074;44.696;10.358;2023-06-24T07:34:34;100332.47;;;31.72;52.20
74524;BME280;63074;44.696;10.358;2023-06-24T07:37:01;100349.22;;;31.14;53.04
74524;BME280;63074;44.696;10.358;2023-06-24T07:41:53;100343.50;;;31.49;52.82
74524;BME280;63074;44.696;10.358;2023-06-24T07:44:19;100308.25;;;32.22;50.54
74524;BME280;63074;44.696;10.358;2023-06-24T07:46:46;100292.53;;;32.33;49.92
74524;BME280;63074;44.696;10.358;2023-06-24T07:49:12;100276.97;;;32.59;49.10
74524;BME280;63074;44.696;10.358;2023-06-24T07:51:38;100291.25;;;32.57;49.26
74524;BME280;63074;44.696;10.358;2023-06-24T07:54:04;100304.75;;;32.02;50.71
74524;BME280;63074;44.696;10.358;2023-06-24T07:56:30;100319.63;;;32.70;50.91
74524;BME280;63074;44.696;10.358;2023-06-24T07:58:57;100305.66;;;32.10;50.02
74524;BME280;63074;44.696;10.358;2023-06-24T08:01:23;100282.53;;;32.92;48.85
74524;BME280;63074;44.696;10.358;2023-06-24T08:03:49;100279.38;;;32.94;48.22
74524;BME280;63074;44.696;10.358;2023-06-24T08:06:15;100310.94;;;32.45;49.69
74524;BME280;63074;44.696;10.358;2023-06-24T08:08:41;100338.25;;;31.86;51.28
74524;BME280;63074;44.696;10.358;2023-06-24T08:11:08;100310.56;;;32.46;48.77
74524;BME280;63074;44.696;10.358;2023-06-24T08:13:34;100284.81;;;33.16;47.37
74524;BME280;63074;44.696;10.358;2023-06-24T08:16:00;100294.78;;;32.54;48.71
74524;BME280;63074;44.696;10.358;2023-06-24T08:18:26;100298.16;;;32.40;47.36
74524;BME280;63074;44.696;10.358;2023-06-24T08:20:52;100296.50;;;32.09;48.94
74524;BME280;63074;44.696;10.358;2023-06-24T08:23:19;100288.81;;;32.82;47.13
74524;BME280;63074;44.696;10.358;2023-06-24T08:25:45;100237.53;;;33.20;43.73
74524;BME280;63074;44.696;10.358;2023-06-24T08:28:11;100204.75;;;33.50;41.52
74524;BME280;63074;44.696;10.358;2023-06-24T08:30:38;100253.16;;;32.61;44.80
74524;BME280;63074;44.696;10.358;2023-06-24T08:33:04;100238.84;;;33.33;42.71
74524;BME280;63074;44.696;10.358;2023-06-24T08:35:30;100226.31;;;34.15;42.55
74524;BME280;63074;44.696;10.358;2023-06-24T08:37:56;100221.94;;;34.18;42.47
74524;BME280;63074;44.696;10.358;2023-06-24T08:40:22;100257.06;;;32.86;44.31
74524;BME280;63074;44.696;10.358;2023-06-24T08:42:49;100257.03;;;33.64;43.84
74524;BME280;63074;44.696;10.358;2023-06-24T08:45:15;100275.66;;;33.16;44.83
74524;BME280;63074;44.696;10.358;2023-06-24T08:47:41;100258.09;;;33.52;44.18
74524;BME280;63074;44.696;10.358;2023-06-24T08:50:12;100229.13;;;34.19;42.43
74524;BME280;63074;44.696;10.358;2023-06-24T08:52:44;100214.16;;;34.56;40.66
74524;BME280;63074;44.696;10.358;2023-06-24T08:55:13;100214.16;;;33.79;41.54
74524;BME280;63074;44.696;10.358;2023-06-24T08:57:42;100239.97;;;34.31;42.32
74524;BME280;63074;44.696;10.358;2023-06-24T09:00:08;100273.63;;;33.53;44.12
74524;BME280;63074;44.696;10.358;2023-06-24T09:02:37;100272.28;;;32.66;44.14
74524;BME280;63074;44.696;10.358;2023-06-24T09:05:05;100299.66;;;32.94;45.57
74524;BME280;63074;44.696;10.358;2023-06-24T09:07:32;100271.91;;;33.01;45.05
74524;BME280;63074;44.696;10.358;2023-06-24T09:09:59;100310.56;;;32.46;47.00
74524;BME280;63074;44.696;10.358;2023-06-24T09:12:26;100289.41;;;32.38;45.20
74524;BME280;63074;44.696;10.358;2023-06-24T09:14:53;100236.31;;;33.65;41.70
74524;BME280;63074;44.696;10.358;2023-06-24T09:17:19;100200.25;;;34.63;38.80
74524;BME280;63074;44.696;10.358;2023-06-24T09:19:48;100241.38;;;33.08;42.48
74524;BME280;63074;44.696;10.358;2023-06-24T09:22:15;100265.75;;;32.21;44.65
74524;BME280;63074;44.696;10.358;2023-06-24T09:24:46;100229.44;;;34.03;40.45
74524;BME280;63074;44.696;10.358;2023-06-24T09:27:14;100247.75;;;32.15;42.60
74524;BME280;63074;44.696;10.358;2023-06-24T09:29:41;100237.22;;;32.58;42.96
74524;BME280;63074;44.696;10.358;2023-06-24T09:32:09;100265.50;;;31.58;44.25
74524;BME280;63074;44.696;10.358;2023-06-24T09:34:35;100242.44;;;32.03;41.85
74524;BME280;63074;44.696;10.358;2023-06-24T09:37:02;100273.97;;;31.65;43.39
74524;BME280;63074;44.696;10.358;2023-06-24T09:41:57;100266.34;;;31.36;43.66
74524;BME280;63074;44.696;10.358;2023-06-24T09:44:25;100253.22;;;32.08;42.47
74524;BME280;63074;44.696;10.358;2023-06-24T09:46:51;100203.97;;;33.06;39.97
74524;BME280;63074;44.696;10.358;2023-06-24T09:49:18;100182.72;;;33.28;39.45
74524;BME280;63074;44.696;10.358;2023-06-24T09:51:49;100160.78;;;33.77;38.59
74524;BME280;63074;44.696;10.358;2023-06-24T09:54:16;100166.97;;;33.53;38.13
74524;BME280;63074;44.696;10.358;2023-06-24T09:56:49;100189.75;;;33.66;41.67
74524;BME280;63074;44.696;10.358;2023-06-24T09:59:18;100177.84;;;34.34;39.37
74524;BME280;63074;44.696;10.358;2023-06-24T10:01:48;100158.84;;;34.86;37.58
74524;BME280;63074;44.696;10.358;2023-06-24T10:04:19;100132.06;;;34.71;37.57
74524;BME280;63074;44.696;10.358;2023-06-24T10:06:48;100163.22;;;33.86;38.20
74524;BME280;63074;44.696;10.358;2023-06-24T10:09:14;100157.19;;;33.73;37.83
74524;BME280;63074;44.696;10.358;2023-06-24T10:11:46;100158.84;;;34.97;36.92
74524;BME280;63074;44.696;10.358;2023-06-24T10:14:16;100116.13;;;34.75;36.34
74524;BME280;63074;44.696;10.358;2023-06-24T10:16:43;100087.78;;;35.65;34.18
74524;BME280;63074;44.696;10.358;2023-06-24T10:19:10;100112.56;;;34.64;36.05
74524;BME280;63074;44.696;10.358;2023-06-24T10:21:52;100115.38;;;35.35;36.20
74524;BME280;63074;44.696;10.358;2023-06-24T10:26:53;100101.78;;;35.26;34.75
74524;BME280;63074;44.696;10.358;2023-06-24T10:31:54;100106.13;;;35.66;34.46
74524;BME280;63074;44.696;10.358;2023-06-24T10:41:55;100085.81;;;37.01;33.52
74524;BME280;63074;44.696;10.358;2023-06-24T10:44:21;100083.34;;;37.10;33.29
74524;BME280;63074;44.696;10.358;2023-06-24T10:46:54;100135.22;;;34.44;37.44
74524;BME280;63074;44.696;10.358;2023-06-24T10:49:20;100157.94;;;34.46;38.03
74524;BME280;63074;44.696;10.358;2023-06-24T10:51:47;100147.31;;;35.48;37.07
74524;BME280;63074;44.696;10.358;2023-06-24T10:54:13;100130.88;;;35.71;35.91
74524;BME280;63074;44.696;10.358;2023-06-24T10:56:39;100136.47;;;35.71;35.88
74524;BME280;63074;44.696;10.358;2023-06-24T10:59:06;100139.28;;;35.78;35.98
74524;BME280;63074;44.696;10.358;2023-06-24T11:01:32;100134.13;;;34.95;36.39
74524;BME280;63074;44.696;10.358;2023-06-24T11:03:58;100120.19;;;36.50;35.41
74524;BME280;63074;44.696;10.358;2023-06-24T11:06:31;100099.66;;;36.01;34.22
74524;BME280;63074;44.696;10.358;2023-06-24T11:09:02;100123.03;;;36.39;35.18
74524;BME280;63074;44.696;10.358;2023-06-24T11:13:54;100155.16;;;34.46;37.90
74524;BME280;63074;44.696;10.358;2023-06-24T11:16:21;100159.59;;;35.86;37.64
74524;BME280;63074;44.696;10.358;2023-06-24T11:18:48;100106.41;;;36.07;35.60
74524;BME280;63074;44.696;10.358;2023-06-24T11:21:15;100124.84;;;35.91;36.68
74524;BME280;63074;44.696;10.358;2023-06-24T11:23:42;100118.66;;;36.97;35.31
74524;BME280;63074;44.696;10.358;2023-06-24T11:26:08;100093.06;;;37.40;34.46
74524;BME280;63074;44.696;10.358;2023-06-24T11:28:34;100074.59;;;38.14;32.86
74524;BME280;63074;44.696;10.358;2023-06-24T11:31:07;100075.50;;;37.73;33.44
74524;BME280;63074;44.696;10.358;2023-06-24T11:33:34;100110.28;;;36.35;35.67
74524;BME280;63074;44.696;10.358;2023-06-24T11:36:00;100134.16;;;37.09;36.87
74524;BME280;63074;44.696;10.358;2023-06-24T11:38:27;100114.97;;;37.90;35.26
74524;BME280;63074;44.696;10.358;2023-06-24T11:40:53;100125.84;;;36.39;36.88
74524;BME280;63074;44.696;10.358;2023-06-24T11:43:26;100107.75;;;36.55;35.16
74524;BME280;63074;44.696;10.358;2023-06-24T11:45:52;100076.72;;;37.35;33.87
74524;BME280;63074;44.696;10.358;2023-06-24T11:48:20;100075.19;;;37.64;33.95
74524;BME280;63074;44.696;10.358;2023-06-24T11:50:53;100052.81;;;38.75;31.94
74524;BME280;63074;44.696;10.358;2023-06-24T11:55:56;100038.06;;;38.95;31.32
74524;BME280;63074;44.696;10.358;2023-06-24T11:58:22;100056.41;;;38.26;32.43
74524;BME280;63074;44.696;10.358;2023-06-24T12:00:49;100042.88;;;38.71;31.93
74524;BME280;63074;44.696;10.358;2023-06-24T12:03:17;100055.34;;;36.59;33.71
74524;BME280;63074;44.696;10.358;2023-06-24T12:05:48;100079.00;;;35.60;36.83
74524;BME280;63074;44.696;10.358;2023-06-24T12:08:14;100075.47;;;36.39;34.48
74524;BME280;63074;44.696;10.358;2023-06-24T12:10:41;100070.16;;;37.48;33.65
74524;BME280;63074;44.696;10.358;2023-06-24T12:13:09;100055.38;;;37.82;33.31
74524;BME280;63074;44.696;10.358;2023-06-24T12:15:35;100055.31;;;38.70;32.55
74524;BME280;63074;44.696;10.358;2023-06-24T12:18:02;100037.75;;;39.56;31.50
74524;BME280;63074;44.696;10.358;2023-06-24T12:26:21;100025.97;;;39.61;30.72
74524;BME280;63074;44.696;10.358;2023-06-24T12:28:47;100015.16;;;41.12;30.04
74524;BME280;63074;44.696;10.358;2023-06-24T12:31:13;100000.47;;;41.34;29.52
74524;BME280;63074;44.696;10.358;2023-06-24T12:33:40;100001.78;;;41.17;29.11
74524;BME280;63074;44.696;10.358;2023-06-24T12:36:06;100004.22;;;40.69;30.08
74524;BME280;63074;44.696;10.358;2023-06-24T12:38:32;100038.84;;;39.38;31.89
74524;BME280;63074;44.696;10.358;2023-06-24T12:40:58;100022.13;;;39.31;31.49
74524;BME280;63074;44.696;10.358;2023-06-24T12:43:24;100055.53;;;38.56;31.78
74524;BME280;63074;44.696;10.358;2023-06-24T12:45:50;100015.72;;;38.88;29.96
74524;BME280;63074;44.696;10.358;2023-06-24T12:48:17;99998.09;;;40.06;29.02
74524;BME280;63074;44.696;10.358;2023-06-24T12:50:43;99980.34;;;40.25;29.61
74524;BME280;63074;44.696;10.358;2023-06-24T12:53:09;99988.63;;;39.40;28.76
74524;BME280;63074;44.696;10.358;2023-06-24T12:55:40;99991.69;;;39.49;28.42
74524;BME280;63074;44.696;10.358;2023-06-24T12:58:07;99986.25;;;39.39;29.44
74524;BME280;63074;44.696;10.358;2023-06-24T13:00:33;100009.19;;;38.94;29.83
74524;BME280;63074;44.696;10.358;2023-06-24T13:02:59;99994.50;;;39.49;29.09
74524;BME280;63074;44.696;10.358;2023-06-24T13:05:25;99993.34;;;39.04;29.75
74524;BME280;63074;44.696;10.358;2023-06-24T13:07:51;99982.81;;;40.23;29.16
74524;BME280;63074;44.696;10.358;2023-06-24T13:10:18;99980.63;;;41.25;27.77
74524;BME280;63074;44.696;10.358;2023-06-24T13:12:44;100011.16;;;40.65;29.78
74524;BME280;63074;44.696;10.358;2023-06-24T13:15:10;99985.63;;;40.07;29.90
74524;BME280;63074;44.696;10.358;2023-06-24T13:17:37;99974.34;;;41.46;27.68
74524;BME280;63074;44.696;10.358;2023-06-24T13:20:03;99964.03;;;42.19;26.76
74524;BME280;63074;44.696;10.358;2023-06-24T13:22:30;99950.84;;;42.76;25.99
74524;BME280;63074;44.696;10.358;2023-06-24T13:24:57;99924.00;;;43.15;25.10
74524;BME280;63074;44.696;10.358;2023-06-24T13:27:24;99935.44;;;42.90;25.80
74524;BME280;63074;44.696;10.358;2023-06-24T13:29:50;99929.47;;;42.75;25.40
74524;BME280;63074;44.696;10.358;2023-06-24T13:32:16;99922.16;;;42.43;25.55
74524;BME280;63074;44.696;10.358;2023-06-24T13:34:42;99961.06;;;39.55;30.55
74524;BME280;63074;44.696;10.358;2023-06-24T13:37:08;99964.69;;;40.08;29.21
74524;BME280;63074;44.696;10.358;2023-06-24T13:39:35;99964.94;;;42.16;27.87
74524;BME280;63074;44.696;10.358;2023-06-24T13:42:01;99938.09;;;42.11;25.93
74524;BME280;63074;44.696;10.358;2023-06-24T13:44:27;99941.50;;;43.01;25.76
74524;BME280;63074;44.696;10.358;2023-06-24T13:46:53;99923.63;;;42.69;25.58